Terminal Aerodrome Forecast
Issued by NWS Charleston, WV

Current Version | Previous Version | Text Only | Print | Product List | Glossary Off
Versions: 1 2 3 4 5 6 7 8 9 10 11 12 13 14 15 16 17 18 19 20 21 22

610
FTUS41 KRLX 041720
TAFCRW
TAF
KCRW 041720Z 0418/0518 30007KT P6SM OVC035
     FM042000 29005KT P6SM BKN025
     FM050500 31005KT P6SM BKN020
     FM050800 30005KT P6SM SCT020 SCT250=

USA.gov is the U.S. government's official web portal to all federal, state and local government web resources and services.